createdAt,value
2022-10-02T00:00:26.542Z,30.35
2022-10-02T00:04:08.124Z,30.28
2022-10-02T00:07:24.393Z,30.20
2022-10-02T00:10:13.455Z,30.06
2022-10-02T00:12:38.085Z,29.91
2022-10-02T00:15:39.465Z,29.83
2022-10-02T00:18:31.133Z,29.78
2022-10-02T00:21:28.997Z,29.74
2022-10-02T00:24:06.701Z,29.69
2022-10-02T00:27:37.131Z,29.63
2022-10-02T00:30:28.960Z,29.55
2022-10-02T00:33:00.653Z,29.52
2022-10-02T00:36:26.342Z,29.49
2022-10-02T00:39:17.679Z,29.48
2022-10-02T00:42:16.496Z,29.45
2022-10-02T00:45:37.136Z,29.43
2022-10-02T00:48:11.195Z,29.42
2022-10-02T00:51:34.954Z,29.39
2022-10-02T00:54:30.966Z,29.32
2022-10-02T00:57:28.731Z,29.26
2022-10-02T01:00:07.489Z,29.23
2022-10-02T01:03:11.219Z,29.17
2022-10-02T01:06:17.272Z,29.10
2022-10-02T01:08:48.782Z,29.04
2022-10-02T01:11:09.909Z,29.01
2022-10-02T01:14:05.384Z,28.98
2022-10-02T01:16:26.212Z,28.94
2022-10-02T01:19:16.722Z,28.88
2022-10-02T01:22:12.652Z,28.82
2022-10-02T01:25:12.593Z,28.79
2022-10-02T01:28:13.357Z,28.73
2022-10-02T01:31:28.782Z,28.69
2022-10-02T01:37:56.007Z,28.59
2022-10-02T01:40:28.207Z,28.53
2022-10-02T01:43:01.851Z,28.48
2022-10-02T01:46:00.865Z,28.42
2022-10-02T01:49:27.593Z,28.35
2022-10-02T01:52:20.974Z,28.27
2022-10-02T01:55:03.538Z,28.19
2022-10-02T01:57:40.299Z,28.13
2022-10-02T02:00:27.422Z,28.05
2022-10-02T02:03:54.182Z,27.96
2022-10-02T02:07:07.724Z,27.84
2022-10-02T02:09:47.152Z,27.72
2022-10-02T02:13:25.293Z,27.62
2022-10-02T02:16:45.825Z,27.50
2022-10-02T02:20:16.837Z,27.37
2022-10-02T02:23:24.737Z,27.25
2022-10-02T02:26:25.681Z,27.17
2022-10-02T02:29:50.778Z,27.09
2022-10-02T02:32:35.138Z,27.01
2022-10-02T02:35:40.142Z,26.95
2022-10-02T02:38:19.429Z,26.89
2022-10-02T02:41:45.333Z,26.83
2022-10-02T02:45:16.642Z,26.75
2022-10-02T02:48:27.861Z,26.67
2022-10-02T02:51:44.493Z,26.60
2022-10-02T02:54:41.140Z,26.52
2022-10-02T02:57:36.753Z,26.45
2022-10-02T02:59:44.530Z,26.38
2022-10-02T03:02:20.627Z,26.31
2022-10-02T03:04:58.491Z,26.23
2022-10-02T03:07:05.616Z,26.17
2022-10-02T03:09:18.191Z,26.11
2022-10-02T03:11:33.528Z,26.01
2022-10-02T03:14:21.449Z,25.95
2022-10-02T03:17:03.101Z,25.86
2022-10-02T03:20:12.281Z,25.79
2022-10-02T03:22:43.976Z,25.68
2022-10-02T03:25:35.559Z,25.61
2022-10-02T03:28:56.930Z,25.53
2022-10-02T03:31:45.821Z,25.45
2022-10-02T03:34:54.149Z,25.37
2022-10-02T03:37:43.471Z,25.29
2022-10-02T03:40:57.547Z,25.20
2022-10-02T03:43:46.547Z,25.12
2022-10-02T03:46:29.773Z,25.04
2022-10-02T03:48:56.851Z,24.97
2022-10-02T03:51:58.311Z,24.91
2022-10-02T03:54:37.251Z,24.85
2022-10-02T03:58:03.573Z,24.80
2022-10-02T04:00:53.256Z,24.74
2022-10-02T04:03:58.688Z,24.69
2022-10-02T04:07:20.476Z,24.62
2022-10-02T04:10:44.964Z,24.52
2022-10-02T04:13:59.985Z,24.43
2022-10-02T04:16:34.751Z,24.35
2022-10-02T04:18:54.625Z,24.28
2022-10-02T04:21:28.917Z,24.19
2022-10-02T04:24:46.086Z,24.10
2022-10-02T04:27:57.188Z,23.98
2022-10-02T04:30:35.579Z,23.86
2022-10-02T04:32:51.160Z,23.78
2022-10-02T04:35:53.790Z,23.72
2022-10-02T04:38:55.783Z,23.69
2022-10-02T04:41:38.713Z,23.63
2022-10-02T04:44:23.454Z,23.56
2022-10-02T04:47:55.470Z,23.50
2022-10-02T04:51:17.054Z,23.41
2022-10-02T04:54:34.307Z,23.37
2022-10-02T04:57:49.622Z,23.29
2022-10-02T05:00:43.623Z,23.26
2022-10-02T05:03:30.257Z,23.23
2022-10-02T05:06:51.604Z,23.19
2022-10-02T05:10:28.599Z,23.13
2022-10-02T05:13:55.842Z,23.06
2022-10-02T05:17:29.241Z,23.00
2022-10-02T05:20:29.248Z,22.98
2022-10-02T05:23:24.802Z,22.91
2022-10-02T05:26:47.181Z,22.82
2022-10-02T05:30:02.938Z,22.73
2022-10-02T05:33:25.020Z,22.60
2022-10-02T05:36:31.243Z,22.52
2022-10-02T05:39:19.088Z,22.51
2022-10-02T05:42:47.590Z,22.50
2022-10-02T05:46:06.691Z,22.49
2022-10-02T05:49:28.800Z,22.45
2022-10-02T05:52:27.303Z,22.39
2022-10-02T05:54:55.809Z,22.33
2022-10-02T05:58:01.511Z,22.30
2022-10-02T06:00:39.303Z,22.27
2022-10-02T06:03:44.272Z,22.27
2022-10-02T06:07:01.279Z,22.26
2022-10-02T06:10:13.611Z,22.25
2022-10-02T06:12:42.481Z,22.23
2022-10-02T06:16:01.793Z,22.20
2022-10-02T06:19:07.425Z,22.19
2022-10-02T06:22:31.690Z,22.16
2022-10-02T06:26:11.033Z,22.12
2022-10-02T06:29:08.221Z,22.11
2022-10-02T06:32:18.755Z,22.08
2022-10-02T06:34:37.139Z,22.06
2022-10-02T06:37:04.511Z,22.06
2022-10-02T06:40:37.750Z,22.03
2022-10-02T06:44:17.126Z,22.05
2022-10-02T06:47:26.973Z,22.02
2022-10-02T06:50:52.069Z,22.02
2022-10-02T06:53:47.467Z,21.99
2022-10-02T06:56:17.196Z,21.97
2022-10-02T06:58:34.918Z,21.94
2022-10-02T07:01:07.593Z,21.92
2022-10-02T07:04:40.079Z,21.87
2022-10-02T07:06:59.879Z,21.80
2022-10-02T07:09:29.992Z,21.76
2022-10-02T07:11:56.526Z,21.70
2022-10-02T07:14:15.745Z,21.63
2022-10-02T07:16:33.522Z,21.56
2022-10-02T07:19:07.008Z,21.49
2022-10-02T07:21:28.464Z,21.40
2022-10-02T07:23:49.711Z,21.31
2022-10-02T07:26:10.940Z,21.22
2022-10-02T07:28:34.983Z,21.12
2022-10-02T07:31:07.327Z,21.00
2022-10-02T07:33:41.393Z,20.90
2022-10-02T07:36:12.498Z,20.82
2022-10-02T07:38:49.636Z,20.72
2022-10-02T07:41:47.518Z,20.63
2022-10-02T07:44:09.858Z,20.52
2022-10-02T07:46:20.392Z,20.45
2022-10-02T07:48:58.297Z,20.36
2022-10-02T07:51:52.896Z,20.25
2022-10-02T07:55:17.610Z,20.17
2022-10-02T07:58:00.432Z,20.10
2022-10-02T08:00:16.812Z,20.03
2022-10-02T08:02:57.314Z,19.96
2022-10-02T08:05:31.576Z,19.88
2022-10-02T08:07:47.598Z,19.83
2022-10-02T08:09:57.090Z,19.78
2022-10-02T08:12:12.328Z,19.72
2022-10-02T08:14:45.715Z,19.67
2022-10-02T08:17:23.282Z,19.61
2022-10-02T08:19:41.754Z,19.56
2022-10-02T08:22:19.204Z,19.50
2022-10-02T08:24:53.856Z,19.48
2022-10-02T08:27:13.435Z,19.44
2022-10-02T08:29:32.883Z,19.41
2022-10-02T08:31:59.427Z,19.37
2022-10-02T08:34:24.510Z,19.34
2022-10-02T08:37:08.881Z,19.31
2022-10-02T08:39:59.951Z,19.27
2022-10-02T08:42:47.840Z,19.22
2022-10-02T08:45:34.666Z,19.19
2022-10-02T08:48:08.714Z,19.15
2022-10-02T08:50:37.965Z,19.11
2022-10-02T08:53:39.079Z,19.07
2022-10-02T08:56:06.700Z,19.01
2022-10-02T08:58:43.572Z,18.95
2022-10-02T09:01:26.218Z,18.90
2022-10-02T09:03:52.581Z,18.83
2022-10-02T09:06:06.441Z,18.76
2022-10-02T09:08:45.568Z,18.70
2022-10-02T09:11:45.756Z,18.65
2022-10-02T09:14:58.817Z,18.60
2022-10-02T09:18:02.281Z,18.55
2022-10-02T09:20:37.575Z,18.48
2022-10-02T09:23:08.200Z,18.45
2022-10-02T09:25:41.863Z,18.40
2022-10-02T09:28:56.648Z,18.35
2022-10-02T09:32:03.313Z,18.29
2022-10-02T09:35:17.579Z,18.25
2022-10-02T09:37:33.370Z,18.18
2022-10-02T09:39:56.664Z,18.14
2022-10-02T09:42:46.695Z,18.09
2022-10-02T09:45:36.840Z,18.04
2022-10-02T09:48:12.524Z,17.98
2022-10-02T09:50:23.309Z,17.94
2022-10-02T09:53:10.723Z,17.89
2022-10-02T09:55:24.382Z,17.83
2022-10-02T09:58:18.125Z,17.77
2022-10-02T10:00:43.700Z,17.72
2022-10-02T10:03:10.380Z,17.68
2022-10-02T10:06:13.925Z,17.66
2022-10-02T10:08:45.637Z,17.61
2022-10-02T10:11:21.307Z,17.58
2022-10-02T10:13:47.823Z,17.53
2022-10-02T10:16:10.853Z,17.49
2022-10-02T10:19:00.698Z,17.44
2022-10-02T10:22:10.374Z,17.40
2022-10-02T10:24:45.441Z,17.37
2022-10-02T10:27:49.411Z,17.36
2022-10-02T10:31:02.505Z,17.36
2022-10-02T10:33:46.745Z,17.35
2022-10-02T10:36:46.758Z,17.35
2022-10-02T10:39:08.521Z,17.32
2022-10-02T10:41:57.866Z,17.28
2022-10-02T10:44:09.319Z,17.27
2022-10-02T10:46:26.568Z,17.24
2022-10-02T10:49:03.107Z,17.23
2022-10-02T10:52:14.629Z,17.21
2022-10-02T10:54:41.066Z,17.20
2022-10-02T10:57:00.332Z,17.17
2022-10-02T10:59:28.178Z,17.15
2022-10-02T11:01:38.897Z,17.13
2022-10-02T11:04:20.127Z,17.11
2022-10-02T11:06:58.738Z,17.07
2022-10-02T11:09:09.395Z,17.03
2022-10-02T11:11:23.193Z,17.01
2022-10-02T11:13:49.465Z,16.98
2022-10-02T11:16:08.790Z,16.98
2022-10-02T11:19:00.383Z,16.96
2022-10-02T11:21:40.154Z,16.91
2022-10-02T11:23:57.663Z,16.86
2022-10-02T11:26:05.768Z,16.81
2022-10-02T11:28:37.690Z,16.77
2022-10-02T11:31:17.730Z,16.73
2022-10-02T11:33:44.800Z,16.67
2022-10-02T11:36:40.586Z,16.63
2022-10-02T11:39:27.080Z,16.58
2022-10-02T11:41:49.769Z,16.54
2022-10-02T11:44:21.324Z,16.51
2022-10-02T11:46:58.209Z,16.49
2022-10-02T11:49:09.392Z,16.46
2022-10-02T11:51:55.008Z,16.44
2022-10-02T11:54:11.754Z,16.38
2022-10-02T11:56:31.498Z,16.33
2022-10-02T11:58:55.355Z,16.29
2022-10-02T12:01:06.394Z,16.24
2022-10-02T12:03:21.013Z,16.19
2022-10-02T12:05:39.182Z,16.15
2022-10-02T12:08:21.798Z,16.10
2022-10-02T12:10:53.794Z,16.07
2022-10-02T12:13:21.440Z,16.02
2022-10-02T12:16:01.546Z,16.00
2022-10-02T12:18:28.249Z,15.94
2022-10-02T12:21:24.435Z,15.91
2022-10-02T12:23:58.959Z,15.86
2022-10-02T12:26:49.248Z,15.85
2022-10-02T12:29:25.982Z,15.80
2022-10-02T12:31:56.720Z,15.75
2022-10-02T12:34:20.434Z,15.69
2022-10-02T12:36:47.923Z,15.64
2022-10-02T12:39:05.926Z,15.61
2022-10-02T12:41:48.331Z,15.57
2022-10-02T12:44:25.825Z,15.53
2022-10-02T12:46:44.348Z,15.50
2022-10-02T12:48:55.413Z,15.47
2022-10-02T12:51:06.140Z,15.44
2022-10-02T12:53:37.343Z,15.43
2022-10-02T12:56:14.772Z,15.42
2022-10-02T12:58:58.312Z,15.41
2022-10-02T13:01:59.450Z,15.42
2022-10-02T13:04:16.768Z,15.40
2022-10-02T13:06:51.554Z,15.37
2022-10-02T13:09:19.434Z,15.35
2022-10-02T13:11:57.885Z,15.33
2022-10-02T13:14:27.559Z,15.31
2022-10-02T13:16:47.399Z,15.28
2022-10-02T13:18:55.803Z,15.26
2022-10-02T13:21:54.540Z,15.24
2022-10-02T13:24:14.949Z,15.20
2022-10-02T13:26:27.305Z,15.17
2022-10-02T13:28:50.545Z,15.13
2022-10-02T13:31:08.332Z,15.10
2022-10-02T13:33:25.746Z,15.07
2022-10-02T13:35:49.251Z,15.04
2022-10-02T13:38:03.516Z,15.02
2022-10-02T13:40:46.298Z,14.99
2022-10-02T13:43:14.761Z,14.98
2022-10-02T13:45:33.793Z,14.95
2022-10-02T13:47:44.508Z,14.94
2022-10-02T13:50:04.949Z,14.92
2022-10-02T13:52:31.645Z,14.91
2022-10-02T13:54:50.449Z,14.89
2022-10-02T13:57:05.972Z,14.85
2022-10-02T13:59:26.634Z,14.86
2022-10-02T14:01:55.149Z,14.83
2022-10-02T14:04:11.560Z,14.83
2022-10-02T14:06:42.166Z,14.82
2022-10-02T14:09:16.765Z,14.82
2022-10-02T14:11:59.821Z,14.81
2022-10-02T14:14:39.260Z,14.81
2022-10-02T14:17:30.164Z,14.80
2022-10-02T14:19:50.663Z,14.79
2022-10-02T14:22:01.415Z,14.81
2022-10-02T14:25:09.649Z,14.81
2022-10-02T14:27:50.048Z,14.83
2022-10-02T14:30:24.347Z,15.19
2022-10-02T14:32:44.097Z,15.62
2022-10-02T14:35:25.793Z,15.71
2022-10-02T14:37:53.598Z,15.68
2022-10-02T14:40:01.972Z,15.62
2022-10-02T14:42:40.471Z,15.59
2022-10-02T14:44:57.523Z,15.56
2022-10-02T14:47:25.645Z,15.51
2022-10-02T14:49:36.658Z,15.71
2022-10-02T14:51:47.593Z,16.33
2022-10-02T14:54:16.748Z,17.22
2022-10-02T14:56:34.060Z,18.10
2022-10-02T14:59:03.514Z,18.88
2022-10-02T15:01:42.753Z,19.68
2022-10-02T15:04:28.341Z,20.28
2022-10-02T15:06:46.704Z,20.86
2022-10-02T15:09:22.531Z,21.26
2022-10-02T15:11:52.436Z,21.66
2022-10-02T15:14:12.520Z,21.99
2022-10-02T15:16:40.085Z,22.22
2022-10-02T15:19:06.642Z,22.46
2022-10-02T15:21:51.846Z,22.65
2022-10-02T15:24:14.352Z,22.85
2022-10-02T15:26:47.140Z,23.06
2022-10-02T15:29:21.675Z,23.27
2022-10-02T15:31:42.097Z,23.47
2022-10-02T15:34:07.180Z,23.61
2022-10-02T15:36:30.837Z,23.74
2022-10-02T15:38:57.662Z,23.86
2022-10-02T15:41:40.604Z,24.00
2022-10-02T15:44:27.393Z,24.13
2022-10-02T15:47:00.767Z,24.20
2022-10-02T15:49:15.247Z,24.25
2022-10-02T15:52:10.445Z,24.30
2022-10-02T15:54:48.556Z,24.41
2022-10-02T15:57:50.935Z,24.51
2022-10-02T16:00:57.567Z,24.63
2022-10-02T16:03:49.043Z,24.81
2022-10-02T16:06:09.099Z,24.99
2022-10-02T16:08:58.409Z,25.09
2022-10-02T16:11:03.776Z,25.21
2022-10-02T16:14:22.645Z,25.33
2022-10-02T16:17:45.113Z,25.55
2022-10-02T16:20:08.501Z,25.77
2022-10-02T16:23:08.660Z,25.87
2022-10-02T16:26:06.426Z,26.05
2022-10-02T16:29:26.108Z,26.21
2022-10-02T16:32:46.680Z,26.41
2022-10-02T16:36:24.260Z,26.62
2022-10-02T16:39:33.429Z,26.84
2022-10-02T16:42:08.614Z,27.07
2022-10-02T16:44:29.037Z,27.29
2022-10-02T16:46:46.675Z,27.42
2022-10-02T16:49:24.544Z,27.58
2022-10-02T16:52:19.653Z,27.76
2022-10-02T16:54:47.732Z,27.92
2022-10-02T16:57:48.869Z,28.02
2022-10-02T17:00:20.014Z,28.17
2022-10-02T17:03:23.334Z,28.25
2022-10-02T17:05:58.690Z,28.26
2022-10-02T17:08:53.165Z,28.34
2022-10-02T17:12:03.009Z,28.48
2022-10-02T17:15:16.127Z,28.65
2022-10-02T17:18:16.464Z,28.76
2022-10-02T17:21:27.836Z,28.94
2022-10-02T17:24:19.055Z,29.10
2022-10-02T17:26:44.177Z,29.25
2022-10-02T17:29:42.240Z,29.47
2022-10-02T17:32:14.115Z,29.67
2022-10-02T17:35:25.907Z,29.87
2022-10-02T17:38:39.976Z,30.05
2022-10-02T17:41:55.213Z,30.28
2022-10-02T17:44:44.430Z,30.46
2022-10-02T17:47:47.397Z,30.57
2022-10-02T17:51:01.790Z,30.68
2022-10-02T17:54:25.718Z,30.84
2022-10-02T17:57:13.277Z,30.91
2022-10-02T17:59:56.566Z,30.99
2022-10-02T18:03:04.905Z,31.09
2022-10-02T18:06:51.931Z,31.17
2022-10-02T18:10:35.884Z,31.30
2022-10-02T18:14:18.993Z,31.40
2022-10-02T18:17:45.971Z,31.46
2022-10-02T18:21:07.878Z,31.58
2022-10-02T18:24:41.809Z,31.91
2022-10-02T18:28:24.326Z,32.09
2022-10-02T18:31:56.261Z,32.32
2022-10-02T18:34:42.755Z,32.46
2022-10-02T18:37:14.003Z,32.51
2022-10-02T18:40:33.952Z,32.64
2022-10-02T18:44:03.113Z,32.68
2022-10-02T18:47:15.974Z,32.88
2022-10-02T18:50:22.272Z,33.14
2022-10-02T18:54:05.889Z,33.36
2022-10-02T18:57:21.809Z,33.59
2022-10-02T19:00:43.660Z,33.76
2022-10-02T19:04:27.051Z,33.83
2022-10-02T19:07:26.691Z,33.88
2022-10-02T19:11:04.310Z,33.91
2022-10-02T19:14:29.774Z,33.85
2022-10-02T19:17:55.948Z,33.79
2022-10-02T19:21:24.778Z,33.88
2022-10-02T19:24:23.276Z,33.91
2022-10-02T19:27:22.590Z,33.88
2022-10-02T19:30:23.313Z,33.87
2022-10-02T19:33:19.156Z,33.84
2022-10-02T19:36:14.638Z,33.79
2022-10-02T19:39:41.131Z,33.75
2022-10-02T19:42:00.879Z,33.69
2022-10-02T19:45:02.536Z,33.61
2022-10-02T19:48:09.866Z,33.57
2022-10-02T19:51:45.018Z,33.61
2022-10-02T19:54:54.264Z,33.57
2022-10-02T19:58:19.743Z,33.47
2022-10-02T20:02:00.333Z,33.34
2022-10-02T20:05:20.978Z,33.34
2022-10-02T20:08:42.776Z,33.42
2022-10-02T20:12:01.433Z,33.49
2022-10-02T20:15:08.009Z,33.55
2022-10-02T20:18:15.108Z,33.63
2022-10-02T20:21:45.154Z,33.76
2022-10-02T20:25:11.047Z,33.91
2022-10-02T20:28:16.898Z,33.99
2022-10-02T20:31:45.249Z,34.08
2022-10-02T20:35:23.356Z,34.16
2022-10-02T20:38:34.380Z,34.19
2022-10-02T20:42:02.698Z,34.15
2022-10-02T20:45:29.783Z,34.15
2022-10-02T20:52:27.546Z,34.19
2022-10-02T20:56:05.350Z,34.23
2022-10-02T20:59:37.146Z,34.39
2022-10-02T21:03:03.989Z,34.42
2022-10-02T21:06:45.888Z,34.49
2022-10-02T21:10:15.807Z,34.53
2022-10-02T21:14:00.213Z,34.58
2022-10-02T21:17:26.803Z,34.55
2022-10-02T21:21:02.460Z,34.46
2022-10-02T21:24:19.681Z,34.43
2022-10-02T21:27:37.904Z,34.45
2022-10-02T21:31:16.497Z,34.52
2022-10-02T21:34:42.155Z,34.65
2022-10-02T21:38:16.158Z,34.67
2022-10-02T21:41:54.017Z,34.70
2022-10-02T21:45:43.386Z,34.79
2022-10-02T21:48:56.249Z,34.93
2022-10-02T21:52:18.067Z,34.96
2022-10-02T21:55:37.333Z,34.99
2022-10-02T21:59:14.803Z,35.00
2022-10-02T22:02:39.132Z,34.91
2022-10-02T22:05:47.512Z,34.81
2022-10-02T22:08:57.987Z,34.85
2022-10-02T22:12:05.884Z,34.81
2022-10-02T22:15:32.468Z,34.75
2022-10-02T22:19:11.009Z,34.75
2022-10-02T22:22:55.729Z,34.80
2022-10-02T22:26:17.493Z,34.79
2022-10-02T22:29:51.494Z,34.77
2022-10-02T22:32:55.788Z,34.75
2022-10-02T22:36:18.029Z,34.78
2022-10-02T22:39:57.064Z,34.78
2022-10-02T22:43:16.517Z,34.75
2022-10-02T22:46:30.854Z,34.72
2022-10-02T22:49:38.342Z,34.69
2022-10-02T22:52:42.687Z,34.64
2022-10-02T22:55:55.533Z,34.59
2022-10-02T22:59:06.317Z,34.58
2022-10-02T23:02:04.771Z,34.54
2022-10-02T23:05:34.509Z,34.53
2022-10-02T23:08:47.312Z,34.53
2022-10-02T23:12:02.541Z,34.61
2022-10-02T23:15:18.908Z,34.65
2022-10-02T23:18:24.462Z,34.64
2022-10-02T23:21:46.615Z,34.58
2022-10-02T23:24:38.330Z,34.55
2022-10-02T23:28:10.051Z,34.51
2022-10-02T23:31:30.475Z,34.48
2022-10-02T23:34:58.887Z,34.41
2022-10-02T23:38:42.851Z,34.35
2022-10-02T23:42:09.016Z,34.23
2022-10-02T23:45:15.352Z,34.11
2022-10-02T23:48:25.422Z,34.03
2022-10-02T23:51:38.351Z,33.94
2022-10-02T23:54:51.129Z,33.83
2022-10-02T23:58:13.255Z,33.74
